createdAt,value
2022-10-07T00:19:12.698Z,100
2022-10-07T00:38:25.814Z,100
2022-10-07T00:57:39.543Z,100
2022-10-07T01:16:53.279Z,100
2022-10-07T01:36:06.749Z,100
2022-10-07T01:55:19.904Z,100
2022-10-07T02:04:56.724Z,100
2022-10-07T02:14:33.860Z,100
2022-10-07T02:33:47.730Z,100
2022-10-07T02:53:01.833Z,100
2022-10-07T03:12:15.410Z,100
2022-10-07T03:31:29.755Z,100
2022-10-07T03:41:05.885Z,100
2022-10-07T03:50:42.459Z,100
2022-10-07T04:09:55.889Z,100
2022-10-07T04:29:09.247Z,100
2022-10-07T04:48:23.400Z,100
2022-10-07T04:58:00.173Z,100
2022-10-07T05:07:37.031Z,100
2022-10-07T05:26:50.510Z,100
2022-10-07T05:46:04.163Z,100
2022-10-07T05:55:41.030Z,100
2022-10-07T06:05:17.980Z,100
2022-10-07T06:24:32.702Z,100
2022-10-07T06:34:10.204Z,100
2022-10-07T06:43:46.880Z,100
2022-10-07T07:03:02.321Z,99.91
2022-10-07T07:22:16.298Z,98.39
2022-10-07T07:41:29.537Z,96.31
2022-10-07T07:51:06.202Z,94.58
2022-10-07T08:00:43.211Z,92.94
2022-10-07T08:19:57.701Z,88.72
2022-10-07T08:39:12.370Z,84.89
2022-10-07T08:58:27.637Z,80.88
2022-10-07T09:08:05.294Z,79.31
2022-10-07T09:17:43.652Z,74.51
2022-10-07T09:37:00.030Z,70.38
2022-10-07T09:56:16.854Z,67.62
2022-10-07T10:15:34.867Z,63.88
2022-10-07T10:35:30.040Z,52.61
2022-10-07T10:55:01.218Z,47.27
2022-10-07T11:14:21.239Z,43.33
2022-10-07T11:33:37.875Z,41.59
2022-10-07T11:52:49.650Z,42.92
2022-10-07T12:12:17.900Z,42.01
2022-10-07T12:31:35.178Z,40.46
2022-10-07T12:50:48.942Z,40.97
2022-10-07T13:10:09.058Z,39.57
2022-10-07T13:29:25.012Z,39.36
2022-10-07T13:39:04.938Z,40.03
2022-10-07T13:48:45.514Z,39.16
2022-10-07T13:58:14.985Z,38.68
2022-10-07T14:07:43.498Z,39.84
2022-10-07T14:26:31.271Z,42.95
2022-10-07T14:45:58.229Z,41.92
2022-10-07T15:04:42.175Z,48.08
2022-10-07T15:14:25.368Z,45.29
2022-10-07T15:24:00.629Z,46.62
2022-10-07T15:33:32.925Z,50.93
2022-10-07T15:43:07.118Z,54
2022-10-07T16:02:17.220Z,60.67
2022-10-07T16:11:52.493Z,63.28
2022-10-07T16:21:28.808Z,67.08
2022-10-07T16:40:40.787Z,72.39
2022-10-07T16:59:53.160Z,76.94
2022-10-07T17:19:06.082Z,78.69
2022-10-07T17:28:42.815Z,83.13
2022-10-07T17:38:18.605Z,84.26
2022-10-07T17:57:31.514Z,88.19
2022-10-07T18:07:08.262Z,89.95
2022-10-07T18:16:44.766Z,88.31
2022-10-07T18:35:59.361Z,88.8
2022-10-07T18:45:35.774Z,89.33
2022-10-07T18:55:12.917Z,87.32
2022-10-07T19:04:50.237Z,86.06
2022-10-07T19:14:27.522Z,86.82
2022-10-07T19:33:41.214Z,89.88
2022-10-07T19:43:17.975Z,91.42
2022-10-07T19:52:54.249Z,93.99
2022-10-07T20:12:07.956Z,93.62
2022-10-07T20:21:45.054Z,93.6
2022-10-07T20:31:22.174Z,93.61
2022-10-07T20:50:37.675Z,93.42
2022-10-07T21:09:50.370Z,97.64
2022-10-07T21:29:03.880Z,100
2022-10-07T21:48:17.437Z,99.25
2022-10-07T22:07:30.712Z,100
2022-10-07T22:26:44.695Z,100
2022-10-07T22:45:58.044Z,100
2022-10-07T23:05:12.100Z,100
2022-10-07T23:24:26.188Z,100
2022-10-07T23:43:40.429Z,100
